Time;durP1;ratioP1;P1;durP2;ratioP2;P2;SDS_P1;SDS_P2;PMS_P1;PMS_P2;Temp;Humidity;BMP_temperature;BMP_pressure;BME280_temperature;BME280_humidity;BME280_pressure;Samples;Min_cycle;Max_cycle;Signal;HPM_P1;HPM_P2
2023/04/07 00:01:15;;;;;;;12.13;4.90;;;;;;;8.70;41.32;98766.13;6187169;23;20178;-91
2023/04/07 00:03:41;;;;;;;8.03;4.80;;;;;;;8.70;41.44;98777.38;6187109;23;20151;-89
2023/04/07 00:06:06;;;;;;;9.17;4.97;;;;;;;8.75;41.23;98774.56;6160908;23;20457;-87
2023/04/07 00:08:32;;;;;;;8.27;4.57;;;;;;;8.76;41.92;98777.09;6187311;23;20149;-87
2023/04/07 00:10:57;;;;;;;10.10;5.90;;;;;;;8.84;41.68;98777.53;6186868;23;20189;-87
2023/04/07 00:13:23;;;;;;;11.80;5.30;;;;;;;8.94;41.17;98770.91;6160744;23;20158;-88
2023/04/07 00:15:48;;;;;;;10.70;4.73;;;;;;;8.96;41.22;98779.50;6187022;23;20205;-88
2023/04/07 00:18:13;;;;;;;9.33;5.17;;;;;;;8.84;41.41;98769.69;6187100;23;20165;-88
2023/04/07 00:20:39;;;;;;;10.40;5.07;;;;;;;9.08;41.47;98773.66;6187382;23;20154;-86
2023/04/07 00:23:05;;;;;;;9.57;4.57;;;;;;;8.92;41.57;98784.97;6187347;23;20262;-87
2023/04/07 00:25:30;;;;;;;8.77;4.83;;;;;;;8.87;41.20;98761.72;6187354;23;20471;-88
2023/04/07 00:27:56;;;;;;;12.53;5.30;;;;;;;8.86;41.13;98767.84;6187053;23;20536;-87
2023/04/07 00:30:21;;;;;;;6.40;3.70;;;;;;;8.48;40.83;98764.59;6186590;23;20186;-88
2023/04/07 00:32:46;;;;;;;12.13;5.40;;;;;;;8.70;41.16;98761.72;6186652;23;20603;-86
2023/04/07 00:35:12;;;;;;;9.73;4.50;;;;;;;8.68;41.03;98770.53;6186549;23;20150;-87
2023/04/07 00:37:37;;;;;;;9.50;5.20;;;;;;;8.59;40.90;98764.03;6160797;23;20689;-90
2023/04/07 00:40:04;;;;;;;11.00;4.50;;;;;;;8.70;40.79;98768.72;6186549;23;20146;-87
2023/04/07 00:42:29;;;;;;;7.73;4.33;;;;;;;8.98;40.50;98772.47;6186456;23;20164;-89
2023/04/07 00:44:55;;;;;;;10.17;5.03;;;;;;;8.83;40.98;98783.66;6160597;23;20233;-86
2023/04/07 00:47:20;;;;;;;6.27;4.70;;;;;;;8.76;40.61;98782.31;6186800;23;20148;-88
2023/04/07 00:49:46;;;;;;;5.93;4.23;;;;;;;8.69;40.78;98780.94;6186377;23;20178;-88
2023/04/07 00:52:11;;;;;;;9.93;5.37;;;;;;;9.04;40.21;98779.97;6186769;23;20148;-88
2023/04/07 00:54:40;;;;;;;6.90;4.27;;;;;;;9.02;40.00;98776.59;6160467;23;20155;-88
2023/04/07 00:57:05;;;;;;;7.70;4.43;;;;;;;8.99;39.98;98774.13;6186355;23;20224;-88
2023/04/07 00:59:31;;;;;;;10.70;4.43;;;;;;;9.05;39.76;98783.41;6186347;23;20146;-88
2023/04/07 01:02:20;;;;;;;9.83;4.77;;;;;;;9.18;39.34;98774.88;6160350;23;20164;-88
2023/04/07 01:05:14;;;;;;;10.87;4.47;;;;;;;8.86;39.97;98786.13;6186699;23;20135;-87
2023/04/07 01:08:12;;;;;;;5.17;3.83;;;;;;;9.04;38.65;98785.19;6186665;23;20138;-87
2023/04/07 01:11:25;;;;;;;10.33;4.60;;;;;;;8.93;39.08;98784.91;6186502;23;20284;-89
2023/04/07 01:13:53;;;;;;;7.50;4.53;;;;;;;9.10;39.00;98770.94;6106601;23;20168;-87
2023/04/07 01:16:41;;;;;;;8.53;4.83;;;;;;;9.26;38.87;98764.00;6186870;23;20140;-86
2023/04/07 01:19:36;;;;;;;7.53;4.20;;;;;;;9.25;38.72;98776.22;6186615;23;20579;-90
2023/04/07 01:22:12;;;;;;;8.47;4.43;;;;;;;9.18;39.61;98774.00;6174436;23;20148;-86
2023/04/07 01:24:53;;;;;;;8.30;4.17;;;;;;;9.16;39.00;98776.72;6186498;23;20205;-86
2023/04/07 01:27:52;;;;;;;8.23;4.37;;;;;;;9.00;39.94;98790.66;6186135;23;20232;-87
2023/04/07 01:30:19;;;;;;;9.10;4.40;;;;;;;8.90;39.93;98786.84;6186342;23;20282;-87
2023/04/07 01:32:51;;;;;;;9.50;4.50;;;;;;;8.81;39.52;98795.97;6186373;23;20205;-88
2023/04/07 01:35:18;;;;;;;8.57;4.67;;;;;;;8.90;40.14;98790.31;6185963;23;20168;-87
2023/04/07 01:37:45;;;;;;;8.43;4.17;;;;;;;8.86;40.33;98786.13;6186676;23;20163;-87
2023/04/07 01:40:11;;;;;;;7.60;4.83;;;;;;;9.13;39.97;98792.56;6186292;23;20153;-87
2023/04/07 01:42:38;;;;;;;9.23;4.17;;;;;;;9.29;39.49;98790.00;6185911;23;20476;-86
2023/04/07 01:45:05;;;;;;;8.43;4.47;;;;;;;9.27;39.38;98795.31;6159844;23;20165;-87
2023/04/07 01:47:33;;;;;;;6.93;4.20;;;;;;;9.27;39.55;98795.31;6185647;23;20159;-88
2023/04/07 01:50:04;;;;;;;10.10;5.47;;;;;;;9.33;40.07;98796.72;6159875;23;20184;-87
2023/04/07 01:52:32;;;;;;;13.03;5.63;;;;;;;9.27;39.45;98790.09;6185621;23;20161;-87
2023/04/07 01:54:58;;;;;;;9.00;4.13;;;;;;;9.22;39.79;98797.28;6159623;23;20151;-87
2023/04/07 01:57:23;;;;;;;8.53;3.90;;;;;;;9.37;39.58;98789.56;6186528;23;20148;-86
2023/04/07 01:59:48;;;;;;;10.70;5.60;;;;;;;9.20;40.02;98787.84;6186157;23;20148;-86
2023/04/07 02:02:14;;;;;;;7.73;4.60;;;;;;;8.96;39.87;98800.41;6185746;23;20153;-89
2023/04/07 02:04:50;;;;;;;8.33;4.10;;;;;;;9.04;40.19;98798.25;6186093;23;20185;-86
2023/04/07 02:07:23;;;;;;;11.33;5.30;;;;;;;8.87;40.49;98800.91;6159757;23;20229;-87
2023/04/07 02:09:53;;;;;;;10.60;5.93;;;;;;;8.96;40.55;98805.66;6185887;23;20168;-87
2023/04/07 02:12:20;;;;;;;7.77;4.40;;;;;;;9.03;40.01;98801.81;6185990;23;20158;-86
2023/04/07 02:14:46;;;;;;;9.90;4.40;;;;;;;9.27;39.95;98800.53;6186031;23;20226;-87
2023/04/07 02:17:14;;;;;;;9.80;4.47;;;;;;;9.17;40.09;98801.94;6185471;23;20154;-86
2023/04/07 02:19:41;;;;;;;7.93;4.43;;;;;;;9.11;39.61;98798.81;6159681;23;20696;-87
2023/04/07 02:22:08;;;;;;;6.87;3.83;;;;;;;9.16;40.48;98796.78;6160659;23;20214;-86
2023/04/07 02:24:33;;;;;;;8.93;4.70;;;;;;;9.22;39.97;98801.72;6160060;23;20160;-86
2023/04/07 02:27:00;;;;;;;8.77;3.63;;;;;;;9.31;39.74;98801.22;6160018;23;20159;-86
2023/04/07 02:29:26;;;;;;;6.20;4.47;;;;;;;9.06;40.35;98806.03;6159838;23;20243;-85
2023/04/07 02:31:51;;;;;;;9.33;4.67;;;;;;;9.06;39.89;98808.66;6159576;23;20160;-91
2023/04/07 02:34:17;;;;;;;9.30;4.47;;;;;;;9.17;39.97;98804.53;6160022;23;20176;-86
2023/04/07 02:36:42;;;;;;;8.03;4.17;;;;;;;9.22;40.07;98794.69;6185819;23;20480;-87
2023/04/07 02:39:08;;;;;;;7.33;4.83;;;;;;;9.27;40.07;98803.16;6185782;23;20252;-87
2023/04/07 02:41:34;;;;;;;8.67;4.60;;;;;;;9.30;39.73;98804.78;6185334;23;20170;-87
2023/04/07 02:43:59;;;;;;;7.13;4.00;;;;;;;9.30;39.60;98806.53;6160424;23;20181;-87
2023/04/07 02:46:25;;;;;;;9.60;4.83;;;;;;;9.17;40.05;98815.00;6185462;23;20515;-86
2023/04/07 02:48:51;;;;;;;6.50;4.07;;;;;;;9.03;39.89;98814.88;6159356;23;20563;-86
2023/04/07 02:51:16;;;;;;;8.67;4.73;;;;;;;9.21;40.16;98807.84;6185426;23;20162;-86
2023/04/07 02:53:42;;;;;;;9.27;4.23;;;;;;;8.89;40.63;98819.97;6185430;23;20275;-87
2023/04/07 02:56:07;;;;;;;10.50;4.57;;;;;;;8.84;40.43;98819.34;6185389;23;20284;-86
2023/04/07 02:58:33;;;;;;;14.03;4.43;;;;;;;8.92;40.50;98816.34;6185792;23;20478;-85
2023/04/07 03:00:58;;;;;;;5.67;3.87;;;;;;;8.64;40.93;98814.28;6160397;23;20160;-86
2023/04/07 03:03:23;;;;;;;8.33;4.70;;;;;;;8.60;40.64;98813.59;6159871;23;20228;-87
2023/04/07 03:05:49;;;;;;;5.67;3.90;;;;;;;8.81;40.58;98819.50;6188569;23;20234;-85
2023/04/07 03:08:15;;;;;;;8.47;4.77;;;;;;;8.80;40.30;98819.59;6188943;23;20242;-86
2023/04/07 03:10:40;;;;;;;6.90;3.87;;;;;;;8.69;40.32;98817.53;6163207;23;20195;-87
2023/04/07 03:13:07;;;;;;;10.63;4.23;;;;;;;8.93;40.46;98815.44;6188602;23;20160;-89
2023/04/07 03:15:32;;;;;;;10.20;4.47;;;;;;;8.80;40.33;98820.44;6188335;23;20215;-88
2023/04/07 03:17:58;;;;;;;9.83;4.73;;;;;;;8.97;40.07;98820.41;6187872;23;20152;-87
2023/04/07 03:20:23;;;;;;;9.53;4.40;;;;;;;9.19;39.77;98825.41;6188935;23;20227;-88
2023/04/07 03:22:49;;;;;;;8.47;4.53;;;;;;;9.18;39.70;98821.94;6188908;23;20161;-87
2023/04/07 03:25:15;;;;;;;7.27;4.43;;;;;;;9.15;39.66;98822.09;6178072;23;20242;-87
2023/04/07 03:27:40;;;;;;;8.27;4.13;;;;;;;9.18;39.37;98821.94;6189202;23;20153;-87
2023/04/07 03:30:06;;;;;;;10.23;4.50;;;;;;;9.15;38.71;98819.47;6188761;23;20175;-87
2023/04/07 03:32:32;;;;;;;7.83;3.83;;;;;;;9.16;39.24;98828.16;6187267;23;20168;-87
2023/04/07 03:34:57;;;;;;;9.80;4.57;;;;;;;8.80;39.57;98824.81;6188885;23;20153;-87
2023/04/07 03:37:23;;;;;;;7.80;4.43;;;;;;;8.90;39.35;98826.88;6188487;23;20253;-89
2023/04/07 03:39:48;;;;;;;8.83;4.23;;;;;;;8.77;39.53;98825.81;6188871;23;20145;-87
2023/04/07 03:42:14;;;;;;;10.13;4.57;;;;;;;8.83;40.51;98830.72;6188878;23;20513;-87
2023/04/07 03:44:39;;;;;;;7.43;4.10;;;;;;;9.01;39.17;98827.19;6186249;23;20160;-87
2023/04/07 03:47:05;;;;;;;8.43;4.10;;;;;;;8.98;39.55;98829.97;6186890;23;20151;-87
2023/04/07 03:49:31;;;;;;;8.37;3.87;;;;;;;8.94;38.84;98838.00;6185574;23;20186;-87
2023/04/07 03:51:57;;;;;;;7.70;4.20;;;;;;;9.00;39.35;98843.78;6188739;23;20151;-87
2023/04/07 03:54:22;;;;;;;9.57;5.07;;;;;;;9.12;38.94;98837.06;6187597;23;20631;-87
2023/04/07 03:56:48;;;;;;;8.93;4.53;;;;;;;9.21;38.91;98839.22;6187766;23;20180;-87
2023/04/07 03:59:14;;;;;;;10.50;5.37;;;;;;;9.16;39.02;98842.09;6188457;23;20143;-87
2023/04/07 04:01:39;;;;;;;9.97;4.50;;;;;;;9.15;39.14;98848.22;6188321;23;20452;-88
2023/04/07 04:04:05;;;;;;;7.60;4.00;;;;;;;9.31;38.59;98848.28;6188387;23;20188;-86
2023/04/07 04:06:31;;;;;;;9.07;3.97;;;;;;;9.21;39.03;98849.69;6188425;23;20146;-86
2023/04/07 04:08:56;;;;;;;9.73;4.70;;;;;;;9.13;39.05;98855.31;6188367;23;20162;-87
2023/04/07 04:11:22;;;;;;;7.43;4.13;;;;;;;9.24;38.85;98852.16;6188442;23;20241;-87
2023/04/07 04:13:47;;;;;;;8.70;4.40;;;;;;;9.00;39.13;98856.88;6188739;23;20456;-88
2023/04/07 04:16:13;;;;;;;11.63;4.90;;;;;;;9.04;40.21;98857.56;6161688;23;20270;-88
2023/04/07 04:18:40;;;;;;;8.50;4.23;;;;;;;9.19;39.28;98856.78;6186774;23;20596;-87
2023/04/07 04:21:10;;;;;;;8.80;5.00;;;;;;;9.22;39.46;98865.28;6186819;23;20150;-87
2023/04/07 04:23:35;;;;;;;8.27;4.73;;;;;;;9.19;39.53;98862.84;6186744;23;20534;-87
2023/04/07 04:26:02;;;;;;;6.87;4.20;;;;;;;9.38;38.13;98865.34;6187134;23;20225;-87
2023/04/07 04:28:28;;;;;;;9.70;4.40;;;;;;;9.27;39.31;98868.53;6160746;23;20252;-87
2023/04/07 04:30:54;;;;;;;8.87;4.50;;;;;;;9.46;39.03;98864.97;6186622;23;20234;-87
2023/04/07 04:33:19;;;;;;;7.70;3.90;;;;;;;9.38;39.49;98869.75;6160544;23;20154;-87
2023/04/07 04:35:45;;;;;;;9.77;4.13;;;;;;;9.38;38.76;98869.75;6160664;23;20586;-87
2023/04/07 04:38:10;;;;;;;7.87;4.87;;;;;;;9.35;38.78;98870.75;6186423;23;20147;-88
2023/04/07 04:40:36;;;;;;;11.77;4.00;;;;;;;9.34;38.35;98868.19;6186895;23;20145;-88
2023/04/07 04:43:05;;;;;;;10.33;4.63;;;;;;;9.16;38.53;98867.38;6186501;23;20556;-88
2023/04/07 04:45:32;;;;;;;7.40;4.13;;;;;;;9.35;38.50;98872.53;6186465;23;20252;-86
2023/04/07 04:47:57;;;;;;;10.17;4.23;;;;;;;9.46;38.59;98876.25;6186399;23;20157;-89
2023/04/07 04:50:22;;;;;;;8.00;4.90;;;;;;;9.43;38.36;98883.44;6186401;23;20203;-88
2023/04/07 04:52:48;;;;;;;7.03;4.23;;;;;;;9.42;38.38;98881.72;6186444;23;20152;-87
2023/04/07 04:55:13;;;;;;;11.27;4.43;;;;;;;9.34;38.57;98879.50;6160413;23;20458;-87
2023/04/07 04:57:39;;;;;;;9.50;4.40;;;;;;;9.12;39.29;98886.75;6186411;23;20164;-87
2023/04/07 05:00:06;;;;;;;8.60;4.20;;;;;;;9.16;38.78;98885.69;6186697;23;20164;-88
2023/04/07 05:02:32;;;;;;;10.20;3.80;;;;;;;9.30;38.83;98883.22;6186227;23;20150;-88
2023/04/07 05:04:58;;;;;;;6.17;3.90;;;;;;;9.47;39.00;98890.19;6187068;23;20153;-88
2023/04/07 05:07:24;;;;;;;8.83;4.47;;;;;;;9.10;38.78;98894.69;6186689;23;20153;-87
2023/04/07 05:09:49;;;;;;;7.30;3.97;;;;;;;9.34;38.48;98897.81;6159904;23;20185;-86
2023/04/07 05:12:15;;;;;;;6.10;3.37;;;;;;;9.57;38.67;98897.47;6180491;23;20184;-88
2023/04/07 05:14:40;;;;;;;10.30;4.60;;;;;;;9.32;38.65;98899.69;6186261;23;20154;-89
2023/04/07 05:17:06;;;;;;;8.77;3.97;;;;;;;9.47;38.50;98900.66;6186277;23;20474;-89
2023/04/07 05:19:31;;;;;;;8.23;4.13;;;;;;;9.45;38.62;98905.13;6186582;23;20153;-87
2023/04/07 05:21:57;;;;;;;8.53;3.57;;;;;;;9.30;38.69;98908.53;6186187;23;20185;-87
2023/04/07 05:24:26;;;;;;;10.13;4.37;;;;;;;9.53;38.24;98910.81;6186109;23;20146;-87
2023/04/07 05:26:51;;;;;;;7.50;3.73;;;;;;;9.60;38.29;98912.16;6186022;23;20158;-87
2023/04/07 05:29:17;;;;;;;9.40;4.43;;;;;;;9.41;38.95;98914.06;6184659;23;20190;-87
2023/04/07 05:31:42;;;;;;;6.90;4.13;;;;;;;9.53;39.19;98906.44;6184564;23;20533;-88
2023/04/07 05:34:08;;;;;;;8.57;4.87;;;;;;;9.69;38.14;98919.56;6186760;23;20278;-88
2023/04/07 05:36:34;;;;;;;13.90;4.13;;;;;;;9.43;38.51;98917.44;6186064;23;20476;-89
2023/04/07 05:38:59;;;;;;;9.20;4.27;;;;;;;9.52;37.66;98916.94;6186012;23;20157;-87
2023/04/07 05:41:25;;;;;;;7.33;4.20;;;;;;;9.62;38.45;98916.41;6186320;23;20329;-87
2023/04/07 05:43:50;;;;;;;8.27;4.70;;;;;;;9.59;37.83;98920.97;6186070;23;20151;-88
2023/04/07 05:46:16;;;;;;;11.07;4.60;;;;;;;9.66;38.03;98919.72;6186217;23;20586;-87
2023/04/07 05:48:41;;;;;;;9.30;4.50;;;;;;;9.86;38.39;98914.25;6185835;23;20239;-87
2023/04/07 05:51:07;;;;;;;7.33;3.77;;;;;;;10.09;37.64;98911.25;6185924;23;20201;-88
2023/04/07 05:53:32;;;;;;;8.93;4.50;;;;;;;10.22;36.68;98914.91;6185867;23;20151;-87
2023/04/07 05:55:57;;;;;;;6.80;3.67;;;;;;;10.30;36.65;98915.34;6185858;23;20288;-86
2023/04/07 05:58:23;;;;;;;9.57;4.70;;;;;;;10.16;37.16;98917.03;6185948;23;20248;-87
2023/04/07 06:00:49;;;;;;;7.60;3.93;;;;;;;10.00;37.25;98918.75;6186151;23;20146;-87
2023/04/07 06:03:15;;;;;;;7.00;3.33;;;;;;;10.03;37.56;98906.38;6184437;23;20228;-88
2023/04/07 06:05:42;;;;;;;8.07;3.77;;;;;;;10.10;37.60;98922.56;6185786;23;20590;-87
2023/04/07 06:08:09;;;;;;;6.07;3.90;;;;;;;10.14;37.18;98919.72;6185781;23;20266;-87
2023/04/07 06:10:34;;;;;;;10.47;4.33;;;;;;;10.43;37.44;98916.38;6186031;23;20194;-88
2023/04/07 06:13:00;;;;;;;9.10;4.30;;;;;;;10.55;36.51;98912.22;6185749;23;20225;-86
2023/04/07 06:15:25;;;;;;;6.83;3.70;;;;;;;10.68;37.09;98921.09;6185751;23;20146;-86
2023/04/07 06:17:51;;;;;;;6.60;3.90;;;;;;;10.69;37.04;98920.16;6185956;23;20187;-88
2023/04/07 06:20:16;;;;;;;11.50;4.13;;;;;;;10.46;35.87;98915.34;6185887;23;20157;-88
2023/04/07 06:22:42;;;;;;;5.90;3.70;;;;;;;10.67;35.67;98921.16;6186288;23;20151;-87
2023/04/07 06:25:08;;;;;;;9.37;3.93;;;;;;;10.87;35.96;98920.91;6185664;23;20225;-86
2023/04/07 06:27:34;;;;;;;11.23;4.03;;;;;;;11.08;35.65;98920.50;6159472;23;20161;-88
2023/04/07 06:30:00;;;;;;;9.00;4.00;;;;;;;11.16;35.90;98925.31;6185431;23;20244;-87
2023/04/07 06:32:25;;;;;;;10.07;4.50;;;;;;;11.25;36.26;98932.63;6159850;23;20158;-87
2023/04/07 06:34:51;;;;;;;7.37;4.10;;;;;;;10.99;36.12;98936.78;6185520;23;20151;-87
2023/04/07 06:37:17;;;;;;;8.07;3.97;;;;;;;10.89;36.05;98942.63;6185490;23;20571;-87
2023/04/07 06:39:42;;;;;;;7.57;4.27;;;;;;;10.91;35.90;98933.75;6185139;23;20146;-88
2023/04/07 06:42:08;;;;;;;6.33;3.67;;;;;;;11.01;35.59;98934.91;6186089;23;20158;-89
2023/04/07 06:44:33;;;;;;;11.83;3.93;;;;;;;11.18;34.51;98935.72;6185449;23;20150;-87
2023/04/07 06:46:59;;;;;;;8.37;3.87;;;;;;;11.40;34.88;98944.03;6159853;23;20159;-87
2023/04/07 06:49:24;;;;;;;6.10;2.90;;;;;;;11.25;35.00;98942.28;6185289;23;20677;-88
2023/04/07 06:51:50;;;;;;;8.27;3.60;;;;;;;11.27;35.27;98948.31;6186019;23;20181;-88
2023/04/07 06:54:15;;;;;;;7.23;4.07;;;;;;;11.37;34.37;98949.44;6185724;23;20529;-87
2023/04/07 06:56:41;;;;;;;8.47;3.90;;;;;;;11.53;34.53;98948.44;6159764;23;20162;-88
2023/04/07 06:59:07;;;;;;;7.93;4.13;;;;;;;11.11;34.98;98961.44;6185254;23;20151;-89
2023/04/07 07:01:33;;;;;;;7.17;3.40;;;;;;;11.08;35.45;98959.00;6185345;23;20176;-88
2023/04/07 07:04:01;;;;;;;7.90;3.67;;;;;;;11.21;34.27;98960.00;6159272;23;20587;-88
2023/04/07 07:06:26;;;;;;;8.43;4.07;;;;;;;11.50;34.92;98964.34;6185270;23;20251;-89
2023/04/07 07:08:52;;;;;;;6.57;3.87;;;;;;;11.45;33.90;98963.78;6185598;23;20283;-89
2023/04/07 07:11:18;;;;;;;7.87;3.93;;;;;;;11.39;34.35;98966.78;6171286;23;20574;-88
2023/04/07 07:13:44;;;;;;;6.90;3.83;;;;;;;11.43;34.95;98972.69;6156218;23;20147;-87
2023/04/07 07:16:11;;;;;;;8.10;4.23;;;;;;;11.40;34.63;98975.53;6155571;23;20481;-89
2023/04/07 07:18:37;;;;;;;6.47;3.50;;;;;;;11.27;34.43;98977.16;6155690;23;20218;-89
2023/04/07 07:21:03;;;;;;;6.97;3.50;;;;;;;11.50;34.59;98974.84;6155439;23;20143;-88
2023/04/07 07:23:29;;;;;;;6.83;3.73;;;;;;;11.19;33.57;98982.81;6155514;23;20160;-90
2023/04/07 07:25:54;;;;;;;7.07;3.83;;;;;;;11.02;34.73;98977.72;6155843;23;20229;-87
2023/04/07 07:28:20;;;;;;;9.50;4.13;;;;;;;10.99;34.24;98983.97;6155802;23;20278;-87
2023/04/07 07:30:46;;;;;;;6.77;3.47;;;;;;;11.05;34.48;98982.78;6129588;23;20194;-87
2023/04/07 07:33:11;;;;;;;10.43;4.13;;;;;;;11.25;34.88;98995.59;6156151;23;20148;-87
2023/04/07 07:35:37;;;;;;;7.53;4.53;;;;;;;11.07;35.10;98997.50;6129741;23;20171;-87
2023/04/07 07:38:03;;;;;;;7.77;4.10;;;;;;;11.40;34.09;99005.19;6155797;23;20152;-90
2023/04/07 07:40:28;;;;;;;8.53;4.50;;;;;;;11.37;35.04;99005.38;6156074;23;20155;-88
2023/04/07 07:42:54;;;;;;;6.97;3.83;;;;;;;11.26;34.99;98996.44;6155369;23;20213;-87
2023/04/07 07:45:19;;;;;;;6.67;3.83;;;;;;;11.64;35.13;98997.69;6129715;23;20165;-87
2023/04/07 07:47:45;;;;;;;7.83;4.23;;;;;;;11.56;34.81;99000.75;6155298;23;20152;-88
2023/04/07 07:50:11;;;;;;;9.17;4.33;;;;;;;11.62;35.42;98995.16;6155268;23;20254;-88
2023/04/07 07:52:36;;;;;;;8.23;4.20;;;;;;;11.75;34.80;99008.44;6131162;23;20556;-88
2023/04/07 07:55:02;;;;;;;7.00;3.67;;;;;;;11.76;35.52;99006.66;6157094;23;20219;-87
2023/04/07 07:57:29;;;;;;;10.50;3.77;;;;;;;11.76;35.59;99011.91;6157575;23;20568;-88
2023/04/07 07:59:55;;;;;;;8.03;4.20;;;;;;;11.94;35.63;99003.78;6131413;23;20156;-88
2023/04/07 08:02:20;;;;;;;6.57;3.90;;;;;;;12.15;34.77;99004.25;6157213;23;20576;-86
2023/04/07 08:04:46;;;;;;;8.93;3.90;;;;;;;12.33;33.96;99011.00;6157128;23;20231;-88
2023/04/07 08:07:11;;;;;;;8.77;4.20;;;;;;;12.52;33.14;99002.84;6157156;23;20149;-88
2023/04/07 08:09:37;;;;;;;7.03;3.33;;;;;;;12.61;33.69;99005.72;6157008;23;20256;-87
2023/04/07 08:12:03;;;;;;;7.90;3.73;;;;;;;12.17;32.94;99013.75;6179686;23;20168;-89
2023/04/07 08:14:29;;;;;;;6.87;3.57;;;;;;;12.26;34.40;99007.09;6187106;23;20176;-88
2023/04/07 08:16:55;;;;;;;6.13;3.90;;;;;;;12.52;33.44;99003.69;6187111;23;20254;-88
2023/04/07 08:19:20;;;;;;;8.00;4.23;;;;;;;12.73;33.32;98998.84;6186726;23;20144;-88
2023/04/07 08:21:46;;;;;;;8.63;4.40;;;;;;;12.86;35.37;98992.72;6186826;23;20187;-88
2023/04/07 08:24:11;;;;;;;5.87;4.00;;;;;;;12.81;34.23;98992.16;6187110;23;20582;-88
2023/04/07 08:26:37;;;;;;;6.93;4.33;;;;;;;12.77;34.77;99002.97;6186751;23;20148;-88
2023/04/07 08:29:02;;;;;;;6.90;4.13;;;;;;;12.84;34.15;98989.31;6161027;23;20251;-88
2023/04/07 08:31:28;;;;;;;8.33;3.80;;;;;;;13.13;32.61;98989.28;6186651;23;20153;-89
2023/04/07 08:33:56;;;;;;;8.03;4.03;;;;;;;13.50;32.75;98988.53;6186698;23;20580;-88
2023/04/07 08:36:26;;;;;;;7.00;3.93;;;;;;;13.91;30.77;98983.97;6186649;23;20161;-88
2023/04/07 08:38:51;;;;;;;10.60;4.27;;;;;;;14.08;31.20;98994.16;6186599;23;20150;-87
2023/04/07 08:41:20;;;;;;;12.13;3.80;;;;;;;13.71;32.12;98986.22;6186910;23;20154;-88
2023/04/07 08:43:48;;;;;;;6.33;3.57;;;;;;;13.71;32.38;98984.44;6160426;23;20589;-89
2023/04/07 08:46:14;;;;;;;7.57;3.57;;;;;;;13.84;32.46;98982.66;6160564;23;20154;-88
2023/04/07 08:48:43;;;;;;;7.43;3.43;;;;;;;14.20;31.40;98981.09;6160500;23;20170;-88
2023/04/07 08:51:09;;;;;;;8.90;3.63;;;;;;;14.79;31.38;98972.44;6160267;23;20657;-88
2023/04/07 08:53:42;;;;;;;8.57;3.70;;;;;;;15.28;30.85;98972.31;6187043;23;20542;-88
2023/04/07 08:56:10;;;;;;;7.13;3.67;;;;;;;15.48;31.20;98981.44;6186510;23;20139;-89
2023/04/07 08:58:36;;;;;;;5.93;3.10;;;;;;;15.73;29.73;98981.28;6186715;23;20510;-89
2023/04/07 09:01:04;;;;;;;5.83;3.20;;;;;;;15.99;29.05;98974.84;6186753;23;20203;-89
2023/04/07 09:03:31;;;;;;;7.37;3.63;;;;;;;15.92;28.66;98985.06;6160162;23;20157;-89
2023/04/07 09:05:58;;;;;;;7.40;4.10;;;;;;;15.94;29.61;98977.00;6160287;23;20158;-88
2023/04/07 09:08:24;;;;;;;9.43;3.57;;;;;;;16.05;28.89;98979.66;6186287;23;20608;-89
2023/04/07 09:10:50;;;;;;;8.53;3.60;;;;;;;16.30;27.68;98974.13;6186037;23;20193;-88
2023/04/07 09:13:15;;;;;;;6.00;3.13;;;;;;;16.55;31.03;98973.94;6186643;23;20676;-89
2023/04/07 09:15:41;;;;;;;5.47;3.23;;;;;;;16.62;28.55;98976.06;6160222;23;20513;-89
2023/04/07 09:18:07;;;;;;;9.50;3.50;;;;;;;16.68;27.48;98968.50;6160274;23;20154;-89
2023/04/07 09:20:57;;;;;;;5.67;3.33;;;;;;;16.46;27.15;98969.31;6186917;23;20562;-89
2023/04/07 09:23:39;;;;;;;8.20;3.73;;;;;;;16.68;28.04;98963.22;6186207;23;20162;-89
2023/04/07 09:26:34;;;;;;;5.80;3.30;;;;;;;16.97;27.97;98963.50;6186485;23;20146;-90
2023/04/07 09:29:01;;;;;;;7.10;4.13;;;;;;;16.85;28.37;98967.16;6154886;23;20165;-90
2023/04/07 09:31:51;;;;;;;9.93;3.60;;;;;;;17.07;28.88;98961.78;6186755;23;20220;-89
2023/04/07 09:34:32;;;;;;;5.67;3.27;;;;;;;17.44;29.94;98955.13;6142025;23;20155;-89
2023/04/07 09:36:58;;;;;;;5.07;3.37;;;;;;;17.60;27.60;98944.97;6186463;23;20150;-89
2023/04/07 09:39:25;;;;;;;6.77;3.43;;;;;;;17.92;27.40;98952.00;6160015;23;20491;-90
2023/04/07 09:41:51;;;;;;;6.67;3.60;;;;;;;17.56;28.59;98948.81;6186026;23;20148;-89
2023/04/07 09:44:26;;;;;;;5.93;3.63;;;;;;;17.72;28.55;98951.88;6185945;23;20146;-89
2023/04/07 09:46:56;;;;;;;6.50;3.90;;;;;;;17.86;27.57;98949.88;6186443;23;20135;-90
2023/04/07 09:49:26;;;;;;;7.17;3.07;;;;;;;18.12;29.54;98945.81;6186533;23;20176;-89
2023/04/07 09:52:00;;;;;;;5.23;3.23;;;;;;;18.33;28.83;98954.56;6185912;23;20158;-90
2023/04/07 09:54:41;;;;;;;7.43;3.57;;;;;;;18.38;26.97;98945.25;6186200;23;20578;-90
2023/04/07 09:57:08;;;;;;;5.83;3.40;;;;;;;18.59;28.35;98944.34;6186626;23;20160;-90
2023/04/07 09:59:37;;;;;;;6.03;3.30;;;;;;;18.79;28.72;98952.22;6159871;23;20149;-90
2023/04/07 10:02:04;;;;;;;6.40;3.23;;;;;;;18.83;27.23;98943.03;6160190;23;20468;-89
2023/04/07 10:04:30;;;;;;;6.33;3.33;;;;;;;18.84;27.44;98942.03;6186271;23;20161;-89
2023/04/07 10:06:57;;;;;;;5.20;3.40;;;;;;;18.64;26.10;98940.31;6185737;23;20182;-89
2023/04/07 10:09:25;;;;;;;8.93;3.63;;;;;;;18.92;28.36;98946.66;6159705;23;20202;-89
2023/04/07 10:11:54;;;;;;;5.60;3.63;;;;;;;19.25;27.30;98942.78;6186101;23;20250;-90
2023/04/07 10:14:22;;;;;;;8.10;4.03;;;;;;;19.34;26.44;98948.09;6185362;23;20211;-90
2023/04/07 10:16:48;;;;;;;7.93;3.73;;;;;;;18.87;25.65;98941.75;6160745;23;20158;-90
2023/04/07 10:19:15;;;;;;;7.37;3.50;;;;;;;18.83;26.52;98943.03;6185721;23;20288;-90
2023/04/07 10:21:41;;;;;;;6.53;3.43;;;;;;;19.05;27.51;98944.56;6160303;23;20181;-89
2023/04/07 10:24:45;;;;;;;7.67;3.90;;;;;;;18.95;25.93;98928.63;6185577;23;20161;-90
2023/04/07 10:27:15;;;;;;;7.93;3.63;;;;;;;19.02;25.93;98934.25;6159576;23;20178;-89
2023/04/07 10:29:43;;;;;;;8.57;4.00;;;;;;;18.79;28.16;98930.13;6186253;23;20178;-90
2023/04/07 10:32:10;;;;;;;8.67;4.13;;;;;;;18.65;26.87;98941.16;6159571;23;20172;-90
2023/04/07 10:34:52;;;;;;;7.53;3.23;;;;;;;18.38;27.28;98939.94;6185205;23;20176;-89
2023/04/07 10:37:20;;;;;;;8.27;3.13;;;;;;;18.88;27.86;98934.63;6185537;23;20537;-90
2023/04/07 10:39:47;;;;;;;7.33;3.30;;;;;;;17.80;28.00;98941.47;6159610;23;20166;-90
2023/04/07 10:42:37;;;;;;;7.23;3.07;;;;;;;18.79;25.97;98930.97;6185106;23;20154;-88
2023/04/07 10:45:08;;;;;;;6.50;3.37;;;;;;;19.20;28.80;98929.06;6185418;23;20617;-90
2023/04/07 10:47:37;;;;;;;7.50;3.67;;;;;;;19.54;27.70;98919.72;6159841;23;20224;-90
2023/04/07 10:50:18;;;;;;;6.67;3.10;;;;;;;19.08;27.57;98931.00;6159413;23;20182;-90
2023/04/07 10:52:48;;;;;;;7.27;3.40;;;;;;;19.24;27.60;98928.66;6185762;23;20150;-89
2023/04/07 10:55:42;;;;;;;10.37;3.47;;;;;;;19.48;28.18;98923.78;6185368;23;20146;-89
2023/04/07 10:58:22;;;;;;;5.83;3.27;;;;;;;19.77;28.32;98921.06;6159344;23;20154;-89
2023/04/07 11:01:20;;;;;;;8.33;3.77;;;;;;;19.12;27.77;98928.94;6186687;23;20573;-91
2023/04/07 11:03:57;;;;;;;7.37;3.07;;;;;;;19.63;29.79;98919.69;6159407;23;20170;-90
2023/04/07 11:06:40;;;;;;;;;;;;;;;;;;;;;
2023/04/07 11:09:27;;;;;;;6.50;3.30;;;;;;;19.60;27.66;98919.16;6186380;23;20217;-91
2023/04/07 11:12:29;;;;;;;;;;;;;;;;;;;;;
2023/04/07 11:15:06;;;;;;;;;;;;;;;;;;;;;
2023/04/07 11:18:22;;;;;;;;;;;;;;;;;;;;;
2023/04/07 11:25:08;;;;;;;;;;;;;;;;;;;;;
2023/04/07 11:50:05;;;;;;;6.60;3.60;;;;;;;17.66;28.58;98917.91;5846560;24;20564;-92
2023/04/07 11:56:41;;;;;;;4.77;2.70;;;;;;;17.44;30.06;98915.38;5808878;24;20175;-92
2023/04/07 11:59:36;;;;;;;6.67;3.00;;;;;;;17.38;30.82;98915.91;5817348;24;20159;-92
2023/04/07 12:02:02;;;;;;;6.53;3.53;;;;;;;17.44;30.10;98907.44;5868258;24;20252;-92
2023/04/07 12:05:38;;;;;;;;;;;;;;;;;;;;;
2023/04/07 12:08:20;;;;;;;;;;;;;;;;;;;;;
2023/04/07 12:11:37;;;;;;;11.13;4.47;;;;;;;16.91;32.38;98913.69;5928065;24;20280;-93
2023/04/07 12:14:32;;;;;;;7.10;3.80;;;;;;;17.32;32.49;98919.03;5927295;24;20202;-95
2023/04/07 12:21:22;;;;;;;;;;;;;;;;;;;;;
2023/04/07 12:24:32;;;;;;;7.80;4.73;;;;;;;16.81;33.55;98913.59;6080355;23;20655;-92
2023/04/07 12:27:35;;;;;;;6.90;4.03;;;;;;;16.80;32.89;98911.06;6067158;23;20564;-93
2023/04/07 12:30:12;;;;;;;7.90;4.10;;;;;;;16.44;33.50;98906.91;6006361;23;20190;-92
2023/04/07 12:36:30;;;;;;;;;;;;;;;;;;;;;